Time;durP1;ratioP1;P1;durP2;ratioP2;P2;SDS_P1;SDS_P2;PMS_P1;PMS_P2;Temp;Humidity;BMP_temperature;BMP_pressure;BME280_temperature;BME280_humidity;BME280_pressure;Samples;Min_cycle;Max_cycle;Signal;HPM_P1;HPM_P2
2023/12/11 00:00:50;;;;;;;51.27;8.93;;;;;;;;;;4875775;29;20048;-65
2023/12/11 00:03:16;;;;;;;52.10;8.43;;;;;;;;;;4888040;29;20431;-65
2023/12/11 00:05:42;;;;;;;65.77;10.13;;;;;;;;;;4895590;29;20052;-65
2023/12/11 00:08:08;;;;;;;50.80;10.47;;;;;;;;;;4894766;29;20056;-65
2023/12/11 00:10:34;;;;;;;47.43;7.53;;;;;;;;;;4895781;29;20053;-65
2023/12/11 00:13:00;;;;;;;55.23;7.57;;;;;;;;;;4895282;29;20545;-65
2023/12/11 00:15:26;;;;;;;60.57;10.80;;;;;;;;;;4895185;29;20081;-65
2023/12/11 00:17:52;;;;;;;52.37;8.67;;;;;;;;;;4894928;29;20081;-65
2023/12/11 00:20:18;;;;;;;60.43;8.73;;;;;;;;;;4887326;29;20127;-65
2023/12/11 00:22:44;;;;;;;52.63;9.47;;;;;;;;;;4875596;29;20041;-65
2023/12/11 00:25:10;;;;;;;46.67;8.40;;;;;;;;;;4875766;29;20060;-65
2023/12/11 00:27:36;;;;;;;49.63;7.83;;;;;;;;;;4875664;29;20045;-65
2023/12/11 00:30:03;;;;;;;51.07;9.50;;;;;;;;;;4876289;29;20053;-65
2023/12/11 00:32:30;;;;;;;44.50;9.17;;;;;;;;;;4876436;29;20080;-65
2023/12/11 00:34:56;;;;;;;52.07;9.67;;;;;;;;;;4875569;29;20140;-65
2023/12/11 00:37:22;;;;;;;60.03;9.10;;;;;;;;;;4876596;29;20132;-65
2023/12/11 00:39:48;;;;;;;49.00;8.80;;;;;;;;;;4876188;29;20045;-65
2023/12/11 00:42:14;;;;;;;43.40;6.77;;;;;;;;;;4875798;29;20045;-65
2023/12/11 00:44:40;;;;;;;52.77;7.90;;;;;;;;;;4876287;29;20045;-65
2023/12/11 00:47:06;;;;;;;55.57;9.17;;;;;;;;;;4875277;29;20088;-65
2023/12/11 00:49:32;;;;;;;43.60;7.37;;;;;;;;;;4875090;29;20524;-65
2023/12/11 00:51:58;;;;;;;48.70;8.33;;;;;;;;;;4875471;29;20523;-65
2023/12/11 00:54:24;;;;;;;46.40;6.93;;;;;;;;;;4887986;29;20139;-65
2023/12/11 00:56:50;;;;;;;43.33;7.20;;;;;;;;;;4885964;29;20049;-65
2023/12/11 00:59:16;;;;;;;44.60;9.40;;;;;;;;;;4875428;29;20049;-65
2023/12/11 01:01:42;;;;;;;58.93;8.00;;;;;;;;;;4875101;29;20579;-65
2023/12/11 01:04:08;;;;;;;46.67;8.40;;;;;;;;;;4875532;29;20057;-65
2023/12/11 01:06:35;;;;;;;43.17;7.37;;;;;;;;;;4875141;29;20059;-65
2023/12/11 01:09:01;;;;;;;48.57;7.73;;;;;;;;;;4875427;29;20393;-65
2023/12/11 01:11:27;;;;;;;45.33;9.20;;;;;;;;;;4876619;29;20330;-65
2023/12/11 01:13:53;;;;;;;55.83;7.13;;;;;;;;;;4874722;29;20057;-65
2023/12/11 01:16:19;;;;;;;49.53;8.17;;;;;;;;;;4874112;29;20049;-65
2023/12/11 01:18:45;;;;;;;51.47;8.70;;;;;;;;;;4874017;29;20127;-65
2023/12/11 01:21:11;;;;;;;45.67;8.20;;;;;;;;;;4874026;29;20524;-65
2023/12/11 01:23:37;;;;;;;60.23;8.33;;;;;;;;;;4874075;29;20053;-65
2023/12/11 01:26:03;;;;;;;45.93;8.40;;;;;;;;;;4873309;29;20220;-65
2023/12/11 01:28:29;;;;;;;49.30;9.33;;;;;;;;;;4874619;29;20055;-65
2023/12/11 01:30:55;;;;;;;53.67;9.40;;;;;;;;;;4874351;29;20132;-65
2023/12/11 01:33:21;;;;;;;49.00;8.33;;;;;;;;;;4873566;29;20504;-65
2023/12/11 01:35:47;;;;;;;49.73;9.97;;;;;;;;;;4874257;29;20059;-65
2023/12/11 01:38:13;;;;;;;51.17;8.67;;;;;;;;;;4873856;29;20059;-65
2023/12/11 01:40:39;;;;;;;47.07;8.67;;;;;;;;;;4874218;29;20432;-65
2023/12/11 01:43:12;;;;;;;54.03;9.00;;;;;;;;;;4873925;29;20080;-65
2023/12/11 01:45:38;;;;;;;36.78;7.65;;;;;;;;;;4874067;29;20073;-65
2023/12/11 01:48:04;;;;;;;53.77;9.00;;;;;;;;;;4874016;29;20049;-65
2023/12/11 01:50:30;;;;;;;48.10;8.80;;;;;;;;;;4873832;29;20056;-65
2023/12/11 01:52:56;;;;;;;55.60;8.90;;;;;;;;;;4873891;29;20053;-65
2023/12/11 01:55:23;;;;;;;59.10;10.23;;;;;;;;;;4874207;29;20127;-65
2023/12/11 01:57:49;;;;;;;55.90;8.90;;;;;;;;;;4874704;29;20488;-65
2023/12/11 02:00:15;;;;;;;41.40;8.37;;;;;;;;;;4874297;29;20053;-65
2023/12/11 02:02:42;;;;;;;77.43;10.80;;;;;;;;;;4874222;29;20056;-65
2023/12/11 02:05:08;;;;;;;56.93;11.13;;;;;;;;;;4873990;29;20045;-65
2023/12/11 02:07:34;;;;;;;50.80;9.07;;;;;;;;;;4874211;29;20099;-65
2023/12/11 02:10:00;;;;;;;61.90;10.13;;;;;;;;;;4873162;29;20045;-65
2023/12/11 02:12:26;;;;;;;60.57;9.60;;;;;;;;;;4874062;29;20048;-65
2023/12/11 02:14:52;;;;;;;59.10;11.07;;;;;;;;;;4873959;29;20053;-65
2023/12/11 02:17:18;;;;;;;58.17;8.90;;;;;;;;;;4872696;29;20060;-65
2023/12/11 02:19:44;;;;;;;57.83;9.10;;;;;;;;;;4874187;29;20049;-65
2023/12/11 02:22:11;;;;;;;66.90;11.17;;;;;;;;;;4873774;29;20097;-65
2023/12/11 02:24:40;;;;;;;51.53;8.83;;;;;;;;;;4876319;29;20492;-65
2023/12/11 02:27:06;;;;;;;53.43;9.73;;;;;;;;;;4877040;29;20100;-65
2023/12/11 02:29:32;;;;;;;55.00;8.70;;;;;;;;;;4877143;29;20040;-65
2023/12/11 02:31:58;;;;;;;45.93;8.17;;;;;;;;;;4877040;29;20056;-65
2023/12/11 02:34:24;;;;;;;58.80;8.70;;;;;;;;;;4877164;29;20490;-65
2023/12/11 02:36:50;;;;;;;64.90;8.47;;;;;;;;;;4877369;29;20041;-65
2023/12/11 02:39:16;;;;;;;50.27;10.33;;;;;;;;;;4876919;29;20044;-65
2023/12/11 02:41:42;;;;;;;54.17;9.97;;;;;;;;;;4877371;29;20048;-65
2023/12/11 02:44:08;;;;;;;54.67;11.27;;;;;;;;;;4876962;29;20189;-65
2023/12/11 02:46:34;;;;;;;49.00;9.70;;;;;;;;;;4876859;29;20069;-65
2023/12/11 02:49:00;;;;;;;60.07;9.70;;;;;;;;;;4876221;29;20053;-65
2023/12/11 02:51:26;;;;;;;52.03;10.67;;;;;;;;;;4876528;29;20569;-65
2023/12/11 02:53:52;;;;;;;53.43;9.23;;;;;;;;;;4877247;29;20056;-65
2023/12/11 02:56:18;;;;;;;53.73;10.20;;;;;;;;;;4877397;29;20492;-65
2023/12/11 02:58:44;;;;;;;50.60;10.33;;;;;;;;;;4876564;29;20052;-65
2023/12/11 03:01:10;;;;;;;57.10;9.60;;;;;;;;;;4876193;29;20512;-65
2023/12/11 03:03:36;;;;;;;60.23;9.77;;;;;;;;;;4877137;29;20096;-65
2023/12/11 03:06:04;;;;;;;60.87;10.87;;;;;;;;;;4876672;29;20049;-65
2023/12/11 03:08:30;;;;;;;46.50;8.97;;;;;;;;;;4877347;29;20052;-65
2023/12/11 03:10:56;;;;;;;57.50;8.83;;;;;;;;;;4876520;29;20531;-64
2023/12/11 03:13:22;;;;;;;51.20;9.70;;;;;;;;;;4876892;29;20132;-65
2023/12/11 03:15:48;;;;;;;54.63;9.53;;;;;;;;;;4877225;29;20164;-65
2023/12/11 03:18:14;;;;;;;45.70;9.93;;;;;;;;;;4875729;29;20045;-66
2023/12/11 03:20:40;;;;;;;54.83;10.07;;;;;;;;;;4876970;29;20483;-66
2023/12/11 03:23:06;;;;;;;58.43;9.90;;;;;;;;;;4875993;29;20052;-66
2023/12/11 03:25:32;;;;;;;58.73;10.20;;;;;;;;;;4876659;29;20060;-65
2023/12/11 03:27:58;;;;;;;60.97;10.00;;;;;;;;;;4876642;29;20088;-65
2023/12/11 03:30:24;;;;;;;69.73;10.03;;;;;;;;;;4876812;29;20049;-65
2023/12/11 03:32:50;;;;;;;52.77;9.37;;;;;;;;;;4876561;29;20056;-65
2023/12/11 03:35:16;;;;;;;72.90;11.70;;;;;;;;;;4874551;29;20049;-65
2023/12/11 03:37:42;;;;;;;73.17;10.67;;;;;;;;;;4876738;29;20076;-66
2023/12/11 03:40:08;;;;;;;43.30;8.10;;;;;;;;;;4876265;29;20045;-66
2023/12/11 03:42:34;;;;;;;51.40;7.20;;;;;;;;;;4875939;29;20564;-65
2023/12/11 03:45:00;;;;;;;57.90;8.93;;;;;;;;;;4876179;29;20092;-65
2023/12/11 03:47:26;;;;;;;52.70;9.83;;;;;;;;;;4875745;29;20136;-65
2023/12/11 03:49:53;;;;;;;63.87;11.17;;;;;;;;;;4875192;29;20052;-65
2023/12/11 03:52:19;;;;;;;68.70;10.63;;;;;;;;;;4875992;29;20053;-65
2023/12/11 03:54:45;;;;;;;55.20;11.20;;;;;;;;;;4876111;29;20072;-65
2023/12/11 03:57:11;;;;;;;58.73;8.57;;;;;;;;;;4876225;29;20072;-65
2023/12/11 03:59:37;;;;;;;57.63;8.40;;;;;;;;;;4875836;29;20405;-65
2023/12/11 04:02:04;;;;;;;61.97;11.07;;;;;;;;;;4875753;29;20049;-65
2023/12/11 04:04:30;;;;;;;55.97;11.20;;;;;;;;;;4875609;29;20532;-65
2023/12/11 04:06:56;;;;;;;55.90;10.63;;;;;;;;;;4876032;29;20076;-65
2023/12/11 04:09:22;;;;;;;54.03;7.90;;;;;;;;;;4876065;29;20049;-65
2023/12/11 04:11:48;;;;;;;57.07;9.40;;;;;;;;;;4874981;29;20069;-65
2023/12/11 04:14:14;;;;;;;45.10;7.30;;;;;;;;;;4875795;29;20046;-65
2023/12/11 04:16:44;;;;;;;51.07;8.83;;;;;;;;;;4874228;29;20045;-65
2023/12/11 04:19:13;;;;;;;64.23;10.50;;;;;;;;;;4875838;29;20041;-65
2023/12/11 04:21:39;;;;;;;44.40;7.43;;;;;;;;;;4875593;29;20081;-65
2023/12/11 04:24:06;;;;;;;40.73;7.37;;;;;;;;;;4875629;29;20057;-65
2023/12/11 04:26:32;;;;;;;42.27;8.60;;;;;;;;;;4875546;29;20428;-65
2023/12/11 04:28:58;;;;;;;44.07;8.47;;;;;;;;;;4874967;29;20045;-65
2023/12/11 04:31:24;;;;;;;45.93;7.30;;;;;;;;;;4875098;29;20041;-65
2023/12/11 04:33:50;;;;;;;47.70;7.60;;;;;;;;;;4874978;29;20068;-65
2023/12/11 04:36:16;;;;;;;48.73;8.87;;;;;;;;;;4874796;29;20060;-65
2023/12/11 04:38:42;;;;;;;55.93;7.80;;;;;;;;;;4875000;29;20045;-65
2023/12/11 04:41:08;;;;;;;45.97;7.27;;;;;;;;;;4874487;29;20467;-65
2023/12/11 04:43:34;;;;;;;51.67;8.07;;;;;;;;;;4875389;29;20163;-65
2023/12/11 04:46:00;;;;;;;60.40;9.10;;;;;;;;;;4874342;29;20053;-65
2023/12/11 04:48:26;;;;;;;46.93;7.83;;;;;;;;;;4874163;29;20052;-65
2023/12/11 04:50:52;;;;;;;52.57;10.73;;;;;;;;;;4873160;29;20526;-65
2023/12/11 04:53:18;;;;;;;54.97;8.10;;;;;;;;;;4875084;29;20072;-65
2023/12/11 04:55:44;;;;;;;54.23;8.47;;;;;;;;;;4875089;29;20048;-65
2023/12/11 04:58:10;;;;;;;59.00;7.90;;;;;;;;;;4874877;29;20040;-65
2023/12/11 05:00:36;;;;;;;51.57;8.20;;;;;;;;;;4874608;29;20045;-66
2023/12/11 05:03:03;;;;;;;67.40;10.03;;;;;;;;;;4874586;29;20499;-65
2023/12/11 05:05:29;;;;;;;51.50;9.07;;;;;;;;;;4874847;29;20456;-65
2023/12/11 05:07:55;;;;;;;48.90;9.27;;;;;;;;;;4875092;29;20049;-65
2023/12/11 05:10:21;;;;;;;55.43;8.47;;;;;;;;;;4875035;29;20044;-65
2023/12/11 05:12:47;;;;;;;51.87;9.20;;;;;;;;;;4874440;29;20056;-65
2023/12/11 05:15:13;;;;;;;58.20;10.00;;;;;;;;;;4874593;29;20056;-65
2023/12/11 05:17:39;;;;;;;56.93;7.70;;;;;;;;;;4873797;29;20392;-65
2023/12/11 05:20:05;;;;;;;61.50;10.27;;;;;;;;;;4874878;29;20045;-65
2023/12/11 05:22:31;;;;;;;60.13;9.60;;;;;;;;;;4873666;29;20049;-66
2023/12/11 05:24:57;;;;;;;45.67;7.70;;;;;;;;;;4874184;29;20068;-66
2023/12/11 05:27:23;;;;;;;55.90;8.23;;;;;;;;;;4873912;29;20143;-65
2023/12/11 05:29:49;;;;;;;58.23;9.57;;;;;;;;;;4873652;29;20057;-66
2023/12/11 05:32:15;;;;;;;57.33;9.93;;;;;;;;;;4873975;29;20056;-65
2023/12/11 05:34:41;;;;;;;49.97;8.43;;;;;;;;;;4873893;29;20072;-65
2023/12/11 05:37:08;;;;;;;59.63;9.93;;;;;;;;;;4874095;29;20055;-66
2023/12/11 05:39:33;;;;;;;56.67;11.50;;;;;;;;;;4867023;29;20055;-65
2023/12/11 05:41:59;;;;;;;57.97;9.60;;;;;;;;;;4874644;29;20053;-65
2023/12/11 05:44:25;;;;;;;46.87;8.23;;;;;;;;;;4873837;29;20053;-65
2023/12/11 05:46:51;;;;;;;40.67;6.50;;;;;;;;;;4873747;29;20419;-65
2023/12/11 05:49:17;;;;;;;48.90;8.20;;;;;;;;;;4873279;29;20053;-65
2023/12/11 05:51:43;;;;;;;34.53;8.50;;;;;;;;;;4874261;29;20445;-65
2023/12/11 05:54:09;;;;;;;48.43;8.23;;;;;;;;;;4874042;29;20136;-65
2023/12/11 05:56:35;;;;;;;51.87;7.57;;;;;;;;;;4873684;29;20045;-65
2023/12/11 05:59:02;;;;;;;46.63;7.47;;;;;;;;;;4875405;29;20393;-65
2023/12/11 06:01:29;;;;;;;41.00;7.73;;;;;;;;;;4870567;29;20515;-65
2023/12/11 06:03:55;;;;;;;48.27;8.10;;;;;;;;;;4878240;29;20071;-65
2023/12/11 06:06:21;;;;;;;42.73;9.60;;;;;;;;;;4877948;29;20056;-65
2023/12/11 06:08:47;;;;;;;50.47;9.03;;;;;;;;;;4877830;29;20047;-65
2023/12/11 06:11:13;;;;;;;54.63;8.70;;;;;;;;;;4877899;29;20049;-65
2023/12/11 06:13:39;;;;;;;50.50;10.07;;;;;;;;;;4877786;29;20170;-65
2023/12/11 06:16:06;;;;;;;46.07;7.63;;;;;;;;;;4877886;29;20071;-65
2023/12/11 06:18:32;;;;;;;53.90;10.80;;;;;;;;;;4877882;29;20049;-65
2023/12/11 06:20:58;;;;;;;43.23;8.80;;;;;;;;;;4877633;29;20431;-65
2023/12/11 06:23:25;;;;;;;48.80;6.90;;;;;;;;;;4876850;29;20063;-65
2023/12/11 06:25:52;;;;;;;49.47;8.47;;;;;;;;;;4877199;29;20480;-65
2023/12/11 06:28:18;;;;;;;50.70;9.03;;;;;;;;;;4875275;29;20167;-65
2023/12/11 06:30:44;;;;;;;51.43;9.57;;;;;;;;;;4876024;29;20045;-65
2023/12/11 06:33:10;;;;;;;53.70;9.67;;;;;;;;;;4877446;29;20068;-65
2023/12/11 06:35:36;;;;;;;42.57;8.20;;;;;;;;;;4877313;29;20045;-65
2023/12/11 06:38:02;;;;;;;50.97;9.63;;;;;;;;;;4876805;29;20132;-65
2023/12/11 06:40:28;;;;;;;43.03;7.13;;;;;;;;;;4877116;29;20077;-65
2023/12/11 06:42:54;;;;;;;51.70;8.60;;;;;;;;;;4877355;29;20088;-65
2023/12/11 06:45:20;;;;;;;49.03;8.53;;;;;;;;;;4875813;29;20444;-65
2023/12/11 06:47:46;;;;;;;45.30;9.83;;;;;;;;;;4876896;29;20057;-65
2023/12/11 06:50:12;;;;;;;42.07;7.63;;;;;;;;;;4877344;29;20499;-65
2023/12/11 06:52:38;;;;;;;52.73;9.50;;;;;;;;;;4877342;29;20053;-65
2023/12/11 06:55:05;;;;;;;52.00;8.53;;;;;;;;;;4876771;29;20466;-65
2023/12/11 06:57:31;;;;;;;56.53;7.80;;;;;;;;;;4876506;29;20047;-65
2023/12/11 06:59:57;;;;;;;35.10;7.30;;;;;;;;;;4877070;29;20053;-65
2023/12/11 07:02:23;;;;;;;54.73;7.60;;;;;;;;;;4874979;29;21147;-65
2023/12/11 07:04:49;;;;;;;39.77;7.93;;;;;;;;;;4876225;29;20085;-65
2023/12/11 07:07:15;;;;;;;53.63;6.77;;;;;;;;;;4876917;29;20053;-66
2023/12/11 07:09:46;;;;;;;57.47;8.17;;;;;;;;;;4877048;29;20044;-66
2023/12/11 07:12:12;;;;;;;52.70;7.23;;;;;;;;;;4868970;29;20048;-66
2023/12/11 07:14:38;;;;;;;48.03;8.30;;;;;;;;;;4876676;29;20045;-66
2023/12/11 07:17:04;;;;;;;55.30;7.87;;;;;;;;;;4875883;29;20132;-66
2023/12/11 07:19:30;;;;;;;57.47;8.73;;;;;;;;;;4876766;29;20456;-66
2023/12/11 07:21:56;;;;;;;48.80;7.00;;;;;;;;;;4875913;29;20061;-66
2023/12/11 07:24:22;;;;;;;53.43;8.23;;;;;;;;;;4875450;29;20084;-66
2023/12/11 07:26:48;;;;;;;45.47;7.67;;;;;;;;;;4875980;29;20048;-66
2023/12/11 07:29:13;;;;;;;28.80;5.53;;;;;;;;;;4875108;29;20056;-65
2023/12/11 07:31:40;;;;;;;41.90;7.33;;;;;;;;;;4876415;29;20411;-65
2023/12/11 07:34:07;;;;;;;33.50;7.27;;;;;;;;;;4876256;29;20080;-66
2023/12/11 07:36:33;;;;;;;30.37;5.93;;;;;;;;;;4876248;29;20060;-65
2023/12/11 07:38:59;;;;;;;31.80;5.83;;;;;;;;;;4875640;29;20053;-65
2023/12/11 07:41:25;;;;;;;26.93;5.83;;;;;;;;;;4876032;29;20041;-65
2023/12/11 07:43:52;;;;;;;32.80;5.53;;;;;;;;;;4875732;29;20059;-65
2023/12/11 07:46:18;;;;;;;20.77;4.87;;;;;;;;;;4875533;29;20045;-65
2023/12/11 07:48:45;;;;;;;35.23;5.50;;;;;;;;;;4876122;29;20052;-66
2023/12/11 07:51:21;;;;;;;35.97;6.23;;;;;;;;;;4875959;29;20052;-66
2023/12/11 07:53:47;;;;;;;25.23;5.77;;;;;;;;;;4875870;29;20057;-66
2023/12/11 07:56:18;;;;;;;17.87;5.80;;;;;;;;;;4874662;29;20059;-66
2023/12/11 07:58:44;;;;;;;27.43;6.30;;;;;;;;;;4876209;29;20053;-65
2023/12/11 08:01:10;;;;;;;25.80;5.50;;;;;;;;;;4875839;29;20044;-65
2023/12/11 08:03:36;;;;;;;28.00;5.47;;;;;;;;;;4875359;29;20516;-65
2023/12/11 08:06:02;;;;;;;19.43;5.50;;;;;;;;;;4876190;29;20077;-65
2023/12/11 08:08:28;;;;;;;23.20;5.53;;;;;;;;;;4874671;29;20049;-65
2023/12/11 08:10:55;;;;;;;22.70;5.00;;;;;;;;;;4874741;29;20520;-65
2023/12/11 08:13:21;;;;;;;26.17;5.50;;;;;;;;;;4875903;29;20572;-65
2023/12/11 08:15:47;;;;;;;17.73;4.90;;;;;;;;;;4875359;29;20041;-65
2023/12/11 08:18:14;;;;;;;25.03;5.67;;;;;;;;;;4874862;29;20117;-65
2023/12/11 08:20:40;;;;;;;21.97;5.57;;;;;;;;;;4874667;29;20647;-65
2023/12/11 08:23:06;;;;;;;22.80;5.17;;;;;;;;;;4875767;29;20089;-65
2023/12/11 08:25:32;;;;;;;16.80;4.13;;;;;;;;;;4876498;29;20204;-65
2023/12/11 08:27:58;;;;;;;20.57;3.93;;;;;;;;;;4874294;29;20408;-66
2023/12/11 08:30:24;;;;;;;26.27;5.77;;;;;;;;;;4876052;29;20120;-66
2023/12/11 08:32:51;;;;;;;22.87;5.03;;;;;;;;;;4876456;29;20049;-66
2023/12/11 08:35:17;;;;;;;18.00;4.47;;;;;;;;;;4876011;29;20049;-66
2023/12/11 08:37:43;;;;;;;22.67;5.17;;;;;;;;;;4874281;29;20088;-66
2023/12/11 08:40:10;;;;;;;24.40;5.67;;;;;;;;;;4874544;29;20519;-65
2023/12/11 08:42:37;;;;;;;23.57;5.43;;;;;;;;;;4875411;29;20053;-65
2023/12/11 08:45:03;;;;;;;18.10;5.63;;;;;;;;;;4875685;29;20053;-65
2023/12/11 08:47:29;;;;;;;15.13;4.87;;;;;;;;;;4874102;29;20056;-65
2023/12/11 08:49:57;;;;;;;22.60;5.63;;;;;;;;;;4874092;29;20512;-64
2023/12/11 08:52:23;;;;;;;24.10;6.23;;;;;;;;;;4875410;29;20052;-65
2023/12/11 08:54:50;;;;;;;24.00;6.50;;;;;;;;;;4872532;29;20069;-65
2023/12/11 08:57:17;;;;;;;31.27;6.70;;;;;;;;;;4872475;29;20494;-65
2023/12/11 08:59:43;;;;;;;31.80;7.10;;;;;;;;;;4873835;29;20531;-65
2023/12/11 09:02:09;;;;;;;36.30;7.93;;;;;;;;;;4873577;29;20045;-65
2023/12/11 09:04:35;;;;;;;30.00;6.60;;;;;;;;;;4875581;29;20100;-65
2023/12/11 09:07:01;;;;;;;41.17;8.40;;;;;;;;;;4878863;29;20049;-65
2023/12/11 09:09:27;;;;;;;39.57;7.93;;;;;;;;;;4875223;29;20128;-65
2023/12/11 09:11:53;;;;;;;39.27;7.20;;;;;;;;;;4870888;29;20063;-65
2023/12/11 09:14:19;;;;;;;33.57;7.13;;;;;;;;;;4874685;29;20085;-65
2023/12/11 09:16:45;;;;;;;38.93;7.00;;;;;;;;;;4874657;29;20426;-65
2023/12/11 09:19:11;;;;;;;46.50;7.03;;;;;;;;;;4874720;29;20139;-65
2023/12/11 09:21:37;;;;;;;34.77;6.93;;;;;;;;;;4875260;29;20617;-65
2023/12/11 09:24:03;;;;;;;41.60;7.20;;;;;;;;;;4878093;29;20053;-65
2023/12/11 09:26:29;;;;;;;43.03;7.77;;;;;;;;;;4872127;29;20481;-65
2023/12/11 09:28:55;;;;;;;32.73;5.90;;;;;;;;;;4875940;29;20060;-65
2023/12/11 09:31:24;;;;;;;36.07;7.07;;;;;;;;;;4873524;29;20057;-65
2023/12/11 09:33:50;;;;;;;30.90;5.00;;;;;;;;;;4872236;29;20065;-65
2023/12/11 09:36:17;;;;;;;38.17;7.17;;;;;;;;;;4873778;29;20045;-66
2023/12/11 09:38:43;;;;;;;29.40;4.90;;;;;;;;;;4872251;29;20068;-65
2023/12/11 09:41:09;;;;;;;33.63;6.40;;;;;;;;;;4874220;29;20496;-65
2023/12/11 09:43:36;;;;;;;32.63;6.07;;;;;;;;;;4872826;29;20045;-65
2023/12/11 09:46:02;;;;;;;33.37;5.67;;;;;;;;;;4872619;29;21048;-65
2023/12/11 09:48:29;;;;;;;21.10;4.17;;;;;;;;;;4865892;29;20056;-65
2023/12/11 09:50:55;;;;;;;38.30;5.43;;;;;;;;;;4873725;29;20142;-65
2023/12/11 09:53:21;;;;;;;31.40;5.40;;;;;;;;;;4873688;29;20400;-65
2023/12/11 09:55:48;;;;;;;26.13;5.17;;;;;;;;;;4874062;29;20464;-65
2023/12/11 09:58:16;;;;;;;30.37;4.40;;;;;;;;;;4873663;29;20487;-65
2023/12/11 10:00:42;;;;;;;19.27;3.70;;;;;;;;;;4873126;29;20045;-65
2023/12/11 10:03:08;;;;;;;26.83;4.83;;;;;;;;;;4873693;29;20052;-65
2023/12/11 10:05:35;;;;;;;36.97;4.77;;;;;;;;;;4874197;29;20037;-65
2023/12/11 10:08:02;;;;;;;22.80;4.37;;;;;;;;;;4873978;29;20539;-65
2023/12/11 10:10:33;;;;;;;32.33;4.87;;;;;;;;;;4873910;29;20469;-65
2023/12/11 10:13:03;;;;;;;22.77;4.03;;;;;;;;;;4873131;29;20057;-65
2023/12/11 10:15:30;;;;;;;25.43;3.90;;;;;;;;;;4873872;29;20041;-65
2023/12/11 10:18:02;;;;;;;27.17;6.17;;;;;;;;;;4874187;29;20504;-65
2023/12/11 10:20:28;;;;;;;25.30;3.80;;;;;;;;;;4873712;29;20124;-65
2023/12/11 10:22:54;;;;;;;38.60;4.53;;;;;;;;;;4873586;29;20061;-65
2023/12/11 10:25:27;;;;;;;32.33;4.20;;;;;;;;;;4873515;29;20526;-65
2023/12/11 10:28:06;;;;;;;29.67;4.75;;;;;;;;;;4873873;29;20068;-65
2023/12/11 10:30:32;;;;;;;41.73;5.33;;;;;;;;;;4867076;29;20072;-65
2023/12/11 10:33:04;;;;;;;25.87;4.27;;;;;;;;;;4874378;29;20049;-65
2023/12/11 10:35:31;;;;;;;27.27;5.47;;;;;;;;;;4872007;29;20052;-65
2023/12/11 10:38:01;;;;;;;27.43;4.43;;;;;;;;;;4874015;29;20137;-65
2023/12/11 10:40:56;;;;;;;37.33;4.40;;;;;;;;;;4873114;29;20059;-65
2023/12/11 10:43:22;;;;;;;27.67;4.00;;;;;;;;;;4869279;29;20523;-65
2023/12/11 10:45:48;;;;;;;28.10;3.73;;;;;;;;;;4875853;29;20041;-65
2023/12/11 10:48:14;;;;;;;31.60;4.40;;;;;;;;;;4876849;29;20602;-65
2023/12/11 10:50:41;;;;;;;33.40;4.97;;;;;;;;;;4877417;29;20346;-66
2023/12/11 10:53:08;;;;;;;27.53;4.40;;;;;;;;;;4877107;29;20500;-65
2023/12/11 10:55:36;;;;;;;27.10;3.80;;;;;;;;;;4876434;29;20104;-65
2023/12/11 10:58:02;;;;;;;19.03;3.50;;;;;;;;;;4876022;29;20411;-65
2023/12/11 11:00:30;;;;;;;28.70;3.83;;;;;;;;;;4877046;29;20077;-65
2023/12/11 11:02:57;;;;;;;20.60;2.97;;;;;;;;;;4876645;29;20053;-65
2023/12/11 11:05:24;;;;;;;27.83;4.87;;;;;;;;;;4876538;29;20041;-65
2023/12/11 11:07:50;;;;;;;21.50;3.73;;;;;;;;;;4876642;29;20056;-65
2023/12/11 11:10:20;;;;;;;23.00;4.63;;;;;;;;;;4876827;29;20052;-65
2023/12/11 11:13:21;;;;;;;21.50;3.43;;;;;;;;;;4876253;29;20053;-65
2023/12/11 11:15:54;;;;;;;26.20;4.87;;;;;;;;;;4855660;29;20053;-65
2023/12/11 11:18:20;;;;;;;20.33;3.57;;;;;;;;;;4873107;29;20542;-65
2023/12/11 11:21:04;;;;;;;23.93;5.37;;;;;;;;;;4876781;29;20825;-65
2023/12/11 11:23:32;;;;;;;31.13;4.83;;;;;;;;;;4869990;29;20056;-65
2023/12/11 11:25:59;;;;;;;32.87;5.07;;;;;;;;;;4876217;29;20516;-65
2023/12/11 11:28:40;;;;;;;33.43;5.37;;;;;;;;;;4876281;29;20156;-65
2023/12/11 11:31:06;;;;;;;39.07;6.77;;;;;;;;;;4873764;29;20049;-65
2023/12/11 11:33:46;;;;;;;46.80;7.50;;;;;;;;;;4869878;29;20053;-65
2023/12/11 11:36:12;;;;;;;41.50;7.47;;;;;;;;;;4875464;29;20057;-65
2023/12/11 11:38:52;;;;;;;37.93;7.13;;;;;;;;;;4876191;29;20057;-65
2023/12/11 11:41:21;;;;;;;38.03;6.93;;;;;;;;;;4875845;29;20508;-65
2023/12/11 11:44:04;;;;;;;33.90;5.97;;;;;;;;;;4875731;29;20049;-65
2023/12/11 11:46:47;;;;;;;35.97;5.90;;;;;;;;;;4875932;29;20393;-65
2023/12/11 11:49:26;;;;;;;38.35;6.05;;;;;;;;;;4875486;29;20045;-65
2023/12/11 11:51:52;;;;;;;24.37;5.30;;;;;;;;;;4876036;29;20049;-65
2023/12/11 11:54:19;;;;;;;32.83;5.17;;;;;;;;;;4875291;29;20087;-65
2023/12/11 11:56:45;;;;;;;36.37;5.33;;;;;;;;;;4875178;29;20053;-65
2023/12/11 11:59:11;;;;;;;31.30;4.20;;;;;;;;;;4875744;29;20045;-65
2023/12/11 12:01:50;;;;;;;35.17;5.47;;;;;;;;;;4875963;29;20042;-65
2023/12/11 12:04:36;;;;;;;24.87;4.17;;;;;;;;;;4873897;29;20072;-65
2023/12/11 12:07:03;;;;;;;24.40;4.27;;;;;;;;;;4875415;29;20145;-65
2023/12/11 12:09:30;;;;;;;18.43;3.70;;;;;;;;;;4875529;29;20049;-65
2023/12/11 12:11:57;;;;;;;20.57;3.17;;;;;;;;;;4875088;29;20041;-65
2023/12/11 12:14:23;;;;;;;22.20;3.33;;;;;;;;;;4874262;29;20049;-65
2023/12/11 12:16:49;;;;;;;17.63;3.93;;;;;;;;;;4875426;29;20114;-65
2023/12/11 12:19:16;;;;;;;24.20;3.43;;;;;;;;;;4875495;29;20080;-65
2023/12/11 12:22:09;;;;;;;19.87;2.27;;;;;;;;;;4875245;29;20041;-65
2023/12/11 12:24:39;;;;;;;14.97;3.30;;;;;;;;;;4874320;29;20053;-65
2023/12/11 12:27:09;;;;;;;15.37;2.10;;;;;;;;;;4875294;29;20519;-65
2023/12/11 12:29:35;;;;;;;15.43;2.40;;;;;;;;;;4875247;29;20055;-64
2023/12/11 12:32:01;;;;;;;15.27;2.00;;;;;;;;;;4874876;29;20411;-64
2023/12/11 12:34:32;;;;;;;12.60;1.70;;;;;;;;;;4874992;29;20045;-64
2023/12/11 12:37:00;;;;;;;12.90;2.13;;;;;;;;;;4874753;29;20560;-64
2023/12/11 12:39:26;;;;;;;10.23;1.33;;;;;;;;;;4875133;29;20516;-64
2023/12/11 12:41:52;;;;;;;13.03;1.40;;;;;;;;;;4874943;29;20053;-64
2023/12/11 12:44:18;;;;;;;6.80;1.30;;;;;;;;;;4874443;29;20045;-64
2023/12/11 12:46:46;;;;;;;8.63;1.43;;;;;;;;;;4875088;29;20143;-64
2023/12/11 12:49:13;;;;;;;8.37;1.57;;;;;;;;;;4874639;29;20504;-64
2023/12/11 12:51:49;;;;;;;15.03;2.10;;;;;;;;;;4874206;29;20041;-64
2023/12/11 12:54:16;;;;;;;12.57;1.67;;;;;;;;;;4874517;29;20056;-64
2023/12/11 12:56:43;;;;;;;6.27;1.40;;;;;;;;;;4874615;29;20045;-65
2023/12/11 12:59:09;;;;;;;11.53;1.47;;;;;;;;;;4874595;29;20045;-64
2023/12/11 13:01:40;;;;;;;10.97;1.43;;;;;;;;;;4874762;29;20049;-64
2023/12/11 13:04:10;;;;;;;7.17;1.60;;;;;;;;;;4874444;29;20041;-64
2023/12/11 13:06:36;;;;;;;9.83;1.37;;;;;;;;;;4874776;29;20059;-64
2023/12/11 13:09:02;;;;;;;10.70;1.40;;;;;;;;;;4874069;29;20045;-64
2023/12/11 13:11:40;;;;;;;10.30;1.70;;;;;;;;;;4875054;29;20045;-64
2023/12/11 13:14:07;;;;;;;10.80;1.67;;;;;;;;;;4866910;29;20389;-64
2023/12/11 13:16:33;;;;;;;7.57;1.33;;;;;;;;;;4874704;29;20048;-64
2023/12/11 13:18:59;;;;;;;17.07;1.50;;;;;;;;;;4874078;29;20049;-64
2023/12/11 13:21:25;;;;;;;13.70;2.13;;;;;;;;;;4874421;29;20068;-63
2023/12/11 13:23:51;;;;;;;5.47;1.07;;;;;;;;;;4874239;29;20052;-64
2023/12/11 13:26:17;;;;;;;10.50;1.47;;;;;;;;;;4873886;29;20041;-64
2023/12/11 13:28:43;;;;;;;6.67;1.47;;;;;;;;;;4874050;29;20056;-64
2023/12/11 13:31:09;;;;;;;8.60;1.37;;;;;;;;;;4874139;29;20067;-64
2023/12/11 13:33:35;;;;;;;9.27;1.53;;;;;;;;;;4874532;29;20045;-63
2023/12/11 13:36:01;;;;;;;6.20;1.20;;;;;;;;;;4874187;29;20527;-63
2023/12/11 13:38:27;;;;;;;16.33;1.97;;;;;;;;;;4873569;29;20041;-63
2023/12/11 13:40:53;;;;;;;6.53;1.00;;;;;;;;;;4874042;29;20131;-63
2023/12/11 13:43:19;;;;;;;5.93;1.07;;;;;;;;;;4873733;29;20073;-63
2023/12/11 13:45:45;;;;;;;7.03;1.30;;;;;;;;;;4873847;29;20045;-63
2023/12/11 13:48:11;;;;;;;9.83;1.20;;;;;;;;;;4873694;29;20063;-63
2023/12/11 13:50:37;;;;;;;12.17;1.30;;;;;;;;;;4873482;29;20053;-63
2023/12/11 13:53:03;;;;;;;7.90;1.43;;;;;;;;;;4874204;29;20421;-63
2023/12/11 13:55:29;;;;;;;7.13;1.10;;;;;;;;;;4873800;29;20097;-63
2023/12/11 13:57:55;;;;;;;7.47;1.30;;;;;;;;;;4873706;29;20041;-63
2023/12/11 14:00:21;;;;;;;12.43;1.17;;;;;;;;;;4873999;29;20052;-63
2023/12/11 14:02:47;;;;;;;7.90;1.37;;;;;;;;;;4874073;29;20044;-63
2023/12/11 14:05:14;;;;;;;9.43;1.03;;;;;;;;;;4873729;29;20052;-63
2023/12/11 14:07:40;;;;;;;10.00;1.20;;;;;;;;;;4873618;29;20049;-63
2023/12/11 14:10:08;;;;;;;9.53;1.93;;;;;;;;;;4873701;29;20041;-63
2023/12/11 14:12:35;;;;;;;7.93;1.20;;;;;;;;;;4873425;29;20128;-63
2023/12/11 14:15:01;;;;;;;5.67;1.07;;;;;;;;;;4873845;29;20068;-63
2023/12/11 14:17:27;;;;;;;6.90;1.20;;;;;;;;;;4873878;29;20037;-63
2023/12/11 14:19:54;;;;;;;9.37;1.13;;;;;;;;;;4874781;29;20128;-63
2023/12/11 14:22:20;;;;;;;9.77;1.17;;;;;;;;;;4877418;29;20065;-63
2023/12/11 14:24:46;;;;;;;6.70;1.30;;;;;;;;;;4877379;29;20049;-63
2023/12/11 14:27:13;;;;;;;7.20;1.10;;;;;;;;;;4876227;29;20056;-63
2023/12/11 14:29:40;;;;;;;4.20;1.10;;;;;;;;;;4877335;29;20152;-63